createdAt,value
2023-09-08T00:03:07.432Z,53.49
2023-09-08T00:08:11.690Z,54.54
2023-09-08T00:13:15.278Z,54.86
2023-09-08T00:18:20.452Z,54.69
2023-09-08T00:23:24.246Z,55.37
2023-09-08T00:28:27.929Z,55.43
2023-09-08T00:33:33.023Z,55.11
2023-09-08T00:38:36.901Z,55.00
2023-09-08T00:43:41.155Z,55.83
2023-09-08T00:48:46.873Z,55.89
2023-09-08T00:53:51.743Z,56.72
2023-09-08T00:58:55.574Z,57.15
2023-09-08T01:04:00.585Z,56.34
2023-09-08T01:09:04.967Z,56.77
2023-09-08T01:14:08.624Z,56.93
2023-09-08T01:19:17.082Z,56.99
2023-09-08T01:24:42.074Z,54.65
2023-09-08T01:29:49.687Z,57.11
2023-09-08T01:34:54.020Z,57.25
2023-09-08T01:39:57.577Z,58.56
2023-09-08T01:45:02.591Z,58.16
2023-09-08T01:50:06.992Z,58.16
2023-09-08T01:55:13.152Z,58.92
2023-09-08T02:00:18.576Z,58.00
2023-09-08T02:05:22.455Z,58.52
2023-09-08T02:10:26.454Z,59.01
2023-09-08T02:15:31.554Z,58.56
2023-09-08T02:20:35.637Z,58.79
2023-09-08T02:25:39.480Z,58.44
2023-09-08T02:30:44.618Z,58.68
2023-09-08T02:35:48.403Z,58.61
2023-09-08T02:40:53.581Z,58.74
2023-09-08T02:45:58.810Z,59.74
2023-09-08T02:51:02.711Z,59.33
2023-09-08T02:56:06.798Z,59.37
2023-09-08T03:01:16.042Z,58.79
2023-09-08T03:06:21.761Z,60.34
2023-09-08T03:11:27.005Z,60.03
2023-09-08T03:16:32.133Z,60.33
2023-09-08T03:21:35.996Z,59.98
2023-09-08T03:26:41.499Z,60.92
2023-09-08T03:31:46.666Z,60.98
2023-09-08T03:36:51.472Z,61.74
2023-09-08T03:41:55.182Z,61.74
2023-09-08T03:47:02.994Z,61.88
2023-09-08T03:52:07.828Z,61.75
2023-09-08T03:57:11.541Z,61.05
2023-09-08T04:02:16.576Z,61.46
2023-09-08T04:07:20.489Z,62.32
2023-09-08T04:12:24.237Z,62.51
2023-09-08T04:17:30.386Z,62.84
2023-09-08T04:22:34.386Z,62.83
2023-09-08T04:27:39.013Z,63.07
2023-09-08T04:32:45.034Z,63.29
2023-09-08T04:37:49.131Z,63.12
2023-09-08T04:42:53.048Z,63.15
2023-09-08T04:47:58.381Z,63.31
2023-09-08T04:53:02.741Z,63.58
2023-09-08T04:58:06.756Z,63.04
2023-09-08T05:03:12.083Z,63.44
2023-09-08T05:08:16.046Z,63.25
2023-09-08T05:13:30.699Z,62.81
2023-09-08T05:18:38.062Z,63.66
2023-09-08T05:23:42.178Z,64.08
2023-09-08T05:28:48.314Z,62.17
2023-09-08T05:33:53.536Z,64.28
2023-09-08T05:38:57.943Z,64.83
2023-09-08T05:44:02.428Z,65.00
2023-09-08T05:49:08.013Z,64.99
2023-09-08T05:54:12.364Z,64.75
2023-09-08T05:59:16.498Z,65.92
2023-09-08T06:04:23.453Z,64.40
2023-09-08T06:09:28.506Z,65.60
2023-09-08T06:14:33.046Z,63.81
2023-09-08T06:19:38.644Z,64.64
2023-09-08T06:24:43.452Z,65.26
2023-09-08T06:29:47.466Z,65.89
2023-09-08T06:34:54.481Z,65.90
2023-09-08T06:39:58.519Z,65.25
2023-09-08T06:45:05.257Z,64.46
2023-09-08T06:50:11.526Z,64.79
2023-09-08T06:55:17.720Z,65.67
2023-09-08T07:00:22.801Z,64.49
2023-09-08T07:05:28.459Z,64.07
2023-09-08T07:10:32.759Z,64.34
2023-09-08T07:15:36.945Z,64.03
2023-09-08T07:20:42.919Z,64.52
2023-09-08T07:25:48.478Z,63.28
2023-09-08T07:30:53.549Z,64.13
2023-09-08T07:36:00.367Z,65.12
2023-09-08T07:41:04.946Z,63.21
2023-09-08T07:46:10.010Z,64.04
2023-09-08T07:51:15.382Z,62.20
2023-09-08T07:56:19.298Z,62.11
2023-09-08T08:01:23.406Z,62.01
2023-09-08T08:06:29.632Z,60.69
2023-09-08T08:11:33.435Z,62.07
2023-09-08T08:16:37.928Z,61.27
2023-09-08T08:21:44.207Z,61.80
2023-09-08T08:26:48.598Z,59.52
2023-09-08T08:31:52.469Z,60.02
2023-09-08T08:36:57.820Z,59.72
2023-09-08T08:42:09.063Z,59.31
2023-09-08T08:47:14.020Z,58.87
2023-09-08T08:52:20.555Z,60.37
2023-09-08T08:57:24.893Z,59.48
2023-09-08T09:02:31.045Z,58.43
2023-09-08T09:07:36.338Z,57.90
2023-09-08T09:12:41.189Z,55.53
2023-09-08T09:17:46.161Z,57.91
2023-09-08T09:22:51.473Z,57.43
2023-09-08T09:27:56.296Z,56.58
2023-09-08T09:33:04.251Z,56.45
2023-09-08T09:38:10.874Z,54.15
2023-09-08T09:43:17.224Z,54.56
2023-09-08T09:48:24.364Z,53.64
2023-09-08T09:53:31.614Z,53.29
2023-09-08T09:58:36.095Z,53.22
2023-09-08T10:03:41.679Z,52.60
2023-09-08T10:08:47.542Z,52.61
2023-09-08T10:13:56.147Z,50.86
2023-09-08T10:19:02.034Z,50.48
2023-09-08T10:24:17.267Z,49.72
2023-09-08T10:29:21.864Z,50.14
2023-09-08T10:34:27.678Z,49.73
2023-09-08T10:39:37.292Z,49.07
2023-09-08T10:44:41.300Z,51.48
2023-09-08T10:49:44.945Z,45.18
2023-09-08T10:54:52.279Z,46.99
2023-09-08T10:59:57.855Z,45.88
2023-09-08T11:05:02.379Z,44.94
2023-09-08T11:10:10.322Z,46.52
2023-09-08T11:15:14.534Z,47.60
2023-09-08T11:20:19.344Z,45.82
2023-09-08T11:25:25.353Z,44.99
2023-09-08T11:30:29.487Z,44.04
2023-09-08T11:35:34.577Z,44.86
2023-09-08T11:40:40.491Z,43.93
2023-09-08T11:45:45.897Z,43.85
2023-09-08T11:50:49.973Z,42.11
2023-09-08T11:55:55.661Z,42.89
2023-09-08T12:01:00.318Z,42.10
2023-09-08T12:06:04.836Z,40.94
2023-09-08T12:11:11.015Z,41.67
2023-09-08T12:16:23.491Z,43.24
2023-09-08T12:21:27.563Z,40.73
2023-09-08T12:26:33.104Z,40.41
2023-09-08T12:31:37.513Z,39.90
2023-09-08T12:36:47.351Z,41.47
2023-09-08T12:41:55.045Z,38.50
2023-09-08T12:47:00.692Z,40.39
2023-09-08T12:52:04.952Z,39.72
2023-09-08T12:57:10.552Z,39.18
2023-09-08T13:02:15.160Z,37.84
2023-09-08T13:07:19.714Z,39.08
2023-09-08T13:12:24.922Z,38.01
2023-09-08T13:17:28.964Z,36.54
2023-09-08T13:22:32.937Z,36.87
2023-09-08T13:27:38.396Z,38.71
2023-09-08T13:32:43.931Z,37.42
2023-09-08T13:37:48.156Z,37.06
2023-09-08T13:42:53.583Z,37.37
2023-09-08T13:47:58.571Z,38.15
2023-09-08T13:53:41.937Z,37.95
2023-09-08T13:58:50.628Z,38.01
2023-09-08T14:04:03.339Z,36.06
2023-09-08T14:09:41.820Z,36.06
2023-09-08T14:14:35.970Z,36.00
2023-09-08T14:19:39.781Z,35.77
2023-09-08T14:24:43.794Z,35.38
2023-09-08T14:29:53.348Z,35.13
2023-09-08T14:34:57.380Z,38.56
2023-09-08T14:40:02.601Z,35.43
2023-09-08T14:45:09.866Z,35.63
2023-09-08T14:50:15.167Z,35.52
2023-09-08T14:55:20.430Z,36.83
2023-09-08T15:00:25.940Z,33.89
2023-09-08T15:05:30.015Z,34.69
2023-09-08T15:10:34.015Z,33.42
2023-09-08T15:15:39.208Z,34.57
2023-09-08T15:20:43.403Z,33.83
2023-09-08T15:25:53.455Z,36.02
2023-09-08T15:30:58.788Z,34.28
2023-09-08T15:36:03.261Z,33.20
2023-09-08T15:41:21.550Z,34.32
2023-09-08T15:46:27.254Z,35.35
2023-09-08T15:51:31.406Z,33.01
2023-09-08T15:56:35.524Z,32.57
2023-09-08T16:01:41.153Z,32.85
2023-09-08T16:06:45.162Z,32.77
2023-09-08T16:11:49.512Z,33.39
2023-09-08T16:16:54.994Z,33.53
2023-09-08T16:21:58.859Z,33.48
2023-09-08T16:27:04.612Z,33.88
2023-09-08T16:32:12.668Z,32.49
2023-09-08T16:37:16.484Z,33.49
2023-09-08T16:42:21.165Z,34.25
2023-09-08T16:47:27.236Z,35.07
2023-09-08T16:52:31.197Z,34.24
2023-09-08T16:57:35.251Z,33.82
2023-09-08T17:02:40.580Z,34.12
2023-09-08T17:07:44.685Z,33.10
2023-09-08T17:12:48.454Z,34.04
2023-09-08T17:17:53.808Z,33.94
2023-09-08T17:22:57.752Z,34.67
2023-09-08T17:28:01.995Z,35.35
2023-09-08T17:33:07.272Z,35.89
2023-09-08T17:38:11.099Z,36.15
2023-09-08T17:43:15.107Z,37.44
2023-09-08T17:48:20.413Z,36.83
2023-09-08T17:53:24.312Z,37.00
2023-09-08T17:58:28.230Z,36.77
2023-09-08T18:03:33.633Z,37.88
2023-09-08T18:08:37.579Z,37.43
2023-09-08T18:13:41.432Z,37.37
2023-09-08T18:18:48.542Z,39.00
2023-09-08T18:23:52.449Z,38.70
2023-09-08T18:28:56.231Z,38.89
2023-09-08T18:34:01.754Z,39.41
2023-09-08T18:39:06.616Z,39.62
2023-09-08T18:44:10.446Z,40.23
2023-09-08T18:49:15.586Z,40.49
2023-09-08T18:54:19.621Z,40.98
2023-09-08T18:59:23.608Z,40.87
2023-09-08T19:04:29.355Z,40.68
2023-09-08T19:09:33.145Z,41.05
2023-09-08T19:14:36.992Z,40.89
2023-09-08T19:19:42.335Z,41.95
2023-09-08T19:24:46.754Z,42.47
2023-09-08T19:29:51.485Z,42.52
2023-09-08T19:34:56.742Z,42.87
2023-09-08T19:40:01.030Z,43.08
2023-09-08T19:45:05.225Z,43.84
2023-09-08T19:50:11.044Z,43.92
2023-09-08T19:55:14.787Z,43.75
2023-09-08T20:00:18.745Z,44.08
2023-09-08T20:05:23.950Z,44.71
2023-09-08T20:10:27.894Z,44.64
2023-09-08T20:15:31.910Z,45.13
2023-09-08T20:20:37.197Z,45.12
2023-09-08T20:25:42.080Z,44.87
2023-09-08T20:30:46.070Z,45.86
2023-09-08T20:35:51.304Z,45.50
2023-09-08T20:40:55.145Z,46.60
2023-09-08T20:46:06.187Z,46.43
2023-09-08T20:51:13.190Z,46.21
2023-09-08T20:56:17.086Z,47.75
2023-09-08T21:01:21.005Z,47.54
2023-09-08T21:06:27.224Z,48.54
2023-09-08T21:11:31.894Z,49.07
2023-09-08T21:16:35.668Z,49.18
2023-09-08T21:21:40.980Z,49.17
2023-09-08T21:26:44.992Z,50.55
2023-09-08T21:31:51.031Z,50.55
2023-09-08T21:36:56.340Z,50.79
2023-09-08T21:42:00.970Z,51.66
2023-09-08T21:47:10.146Z,50.50
2023-09-08T21:52:24.343Z,51.55
2023-09-08T21:57:35.904Z,52.44
2023-09-08T22:02:39.889Z,52.65
2023-09-08T22:07:45.156Z,53.13
2023-09-08T22:12:49.123Z,52.30
2023-09-08T22:17:53.118Z,53.87
2023-09-08T22:22:58.342Z,53.74
2023-09-08T22:28:02.179Z,54.02
2023-09-08T22:33:06.219Z,54.14
2023-09-08T22:38:11.516Z,53.53
2023-09-08T22:43:15.447Z,54.82
2023-09-08T22:48:20.545Z,54.44
2023-09-08T22:53:25.882Z,54.92
2023-09-08T22:58:39.591Z,52.42
2023-09-08T23:03:43.656Z,55.24
2023-09-08T23:08:49.242Z,54.95
2023-09-08T23:13:53.786Z,55.12
2023-09-08T23:18:58.780Z,55.37
2023-09-08T23:24:04.719Z,55.58
2023-09-08T23:29:08.530Z,56.10
2023-09-08T23:34:13.815Z,55.65
2023-09-08T23:39:19.399Z,56.49
2023-09-08T23:44:23.766Z,56.10
2023-09-08T23:49:27.529Z,56.16
2023-09-08T23:54:32.696Z,56.87
2023-09-08T23:59:36.351Z,56.64
